createdAt,value
2022-09-12T00:04:15.956Z,7.60
2022-09-12T00:09:17.484Z,10.40
2022-09-12T00:14:19.585Z,7.10
2022-09-12T00:19:21.124Z,7.90
2022-09-12T00:24:22.700Z,8.00
2022-09-12T00:29:24.260Z,8.20
2022-09-12T00:34:25.844Z,10.00
2022-09-12T00:39:27.436Z,9.90
2022-09-12T00:44:28.904Z,9.20
2022-09-12T00:49:33.735Z,8.60
2022-09-12T00:54:55.519Z,8.60
2022-09-12T00:59:59.439Z,8.80
2022-09-12T01:05:01.061Z,8.00
2022-09-12T01:10:03.024Z,10.20
2022-09-12T01:15:04.948Z,10.70
2022-09-12T01:20:09.584Z,9.50
2022-09-12T01:25:28.343Z,9.20
2022-09-12T01:30:39.633Z,11.70
2022-09-12T01:40:46.318Z,13.70
2022-09-12T01:45:55.046Z,10.40
2022-09-12T01:51:00.243Z,11.30
2022-09-12T01:56:17.819Z,10.70
2022-09-12T02:01:24.691Z,14.90
2022-09-12T02:06:27.808Z,9.00
2022-09-12T02:11:31.898Z,8.30
2022-09-12T02:16:54.198Z,12.30
2022-09-12T02:21:57.726Z,8.90
2022-09-12T02:27:11.410Z,9.00
2022-09-12T02:32:15.758Z,10.90
2022-09-12T02:37:21.352Z,10.00
2022-09-12T02:42:23.719Z,12.00
2022-09-12T02:47:28.807Z,9.80
2022-09-12T02:52:30.313Z,10.60
2022-09-12T02:57:31.900Z,9.40
2022-09-12T03:02:41.577Z,12.00
2022-09-12T03:08:02.783Z,9.00
2022-09-12T03:23:25.959Z,10.60
2022-09-12T03:28:28.142Z,9.80
2022-09-12T03:33:29.697Z,13.50
2022-09-12T03:38:31.403Z,9.90
2022-09-12T03:43:32.925Z,8.90
2022-09-12T03:48:34.550Z,8.00
2022-09-12T03:53:36.185Z,9.80
2022-09-12T03:58:38.173Z,9.50
2022-09-12T04:03:44.275Z,8.80
2022-09-12T04:08:48.514Z,7.80
2022-09-12T04:13:50.155Z,8.10
2022-09-12T04:18:51.875Z,10.90
2022-09-12T04:23:53.456Z,7.90
2022-09-12T04:29:04.323Z,9.10
2022-09-12T04:34:05.799Z,8.90
2022-09-12T04:39:07.842Z,10.60
2022-09-12T04:44:13.593Z,6.70
2022-09-12T04:49:19.375Z,8.50
2022-09-12T04:54:21.052Z,11.90
2022-09-12T04:59:22.756Z,7.60
2022-09-12T05:04:24.272Z,13.00
2022-09-12T05:09:25.899Z,14.70
2022-09-12T05:14:27.566Z,12.30
2022-09-12T05:19:30.397Z,7.90
2022-09-12T05:24:32.568Z,8.80
2022-09-12T05:29:34.125Z,23.00
2022-09-12T05:34:35.626Z,16.90
2022-09-12T05:39:37.243Z,7.40
2022-09-12T05:44:38.915Z,7.10
2022-09-12T05:49:45.225Z,7.10
2022-09-12T05:54:48.228Z,10.30
2022-09-12T05:59:50.749Z,4.90
2022-09-12T06:04:52.250Z,5.90
2022-09-12T06:09:53.790Z,4.50
2022-09-12T06:14:55.567Z,6.50
2022-09-12T06:19:57.176Z,5.70
2022-09-12T06:24:58.712Z,8.70
2022-09-12T06:30:00.781Z,9.90
2022-09-12T06:35:02.433Z,4.40
2022-09-12T06:40:04.203Z,6.80
2022-09-12T06:45:06.070Z,6.00
2022-09-12T06:50:08.467Z,7.30
2022-09-12T06:55:10.653Z,9.80
2022-09-12T07:00:12.564Z,5.20
2022-09-12T07:05:15.158Z,4.10
2022-09-12T07:10:21.658Z,7.70
2022-09-12T07:15:23.825Z,7.50
2022-09-12T07:20:25.297Z,5.00
2022-09-12T07:25:27.379Z,4.40
2022-09-12T07:30:29.026Z,2.90
2022-09-12T07:35:32.336Z,3.20
2022-09-12T07:40:33.875Z,13.10
2022-09-12T07:45:35.505Z,4.70
2022-09-12T07:50:38.589Z,5.60
2022-09-12T07:55:42.953Z,3.60
2022-09-12T08:00:45.932Z,2.10
2022-09-12T08:05:47.547Z,5.80
2022-09-12T08:10:49.083Z,3.90
2022-09-12T08:15:50.648Z,2.60
2022-09-12T08:21:02.468Z,6.90
2022-09-12T08:26:06.387Z,3.70
2022-09-12T08:31:09.623Z,8.90
2022-09-12T08:36:12.855Z,1.90
2022-09-12T08:41:35.033Z,2.10
2022-09-12T08:46:52.067Z,2.60
2022-09-12T08:51:55.199Z,3.70
2022-09-12T08:56:58.647Z,4.00
2022-09-12T09:02:04.429Z,7.50
2022-09-12T09:07:18.747Z,4.10
2022-09-12T09:12:26.713Z,2.50
2022-09-12T09:17:28.175Z,5.80
2022-09-12T09:22:32.473Z,3.10
2022-09-12T09:27:41.214Z,18.90
2022-09-12T09:32:44.606Z,5.00
2022-09-12T09:37:58.826Z,4.70
2022-09-12T09:43:18.404Z,3.40
2022-09-12T09:48:22.889Z,5.70
2022-09-12T09:53:27.834Z,5.60
2022-09-12T09:58:33.026Z,6.90
2022-09-12T10:03:38.039Z,7.40
2022-09-12T10:08:40.527Z,2.20
2022-09-12T10:13:52.733Z,2.00
2022-09-12T10:18:55.544Z,6.80
2022-09-12T10:24:03.249Z,5.70
2022-09-12T10:29:10.967Z,2.10
2022-09-12T10:34:21.084Z,7.40
2022-09-12T10:39:23.015Z,1.90
2022-09-12T10:44:26.273Z,2.20
2022-09-12T10:49:31.771Z,5.10
2022-09-12T10:54:34.501Z,6.90
2022-09-12T10:59:54.162Z,6.60
2022-09-12T11:05:07.937Z,3.70
2022-09-12T11:10:13.507Z,2.50
2022-09-12T11:15:27.222Z,2.20
2022-09-12T11:20:34.745Z,4.70
2022-09-12T11:25:43.861Z,9.80
2022-09-12T11:31:00.832Z,3.40
2022-09-12T11:36:05.947Z,4.80
2022-09-12T11:41:11.434Z,7.00
2022-09-12T11:46:13.512Z,2.60
2022-09-12T11:51:25.939Z,4.50
2022-09-12T11:56:27.484Z,3.40
2022-09-12T12:01:41.288Z,2.10
2022-09-12T12:06:52.111Z,3.90
2022-09-12T12:11:57.566Z,3.30
2022-09-12T12:16:59.164Z,2.40
2022-09-12T12:22:06.265Z,3.70
2022-09-12T12:27:46.383Z,2.60
2022-09-12T12:32:48.007Z,5.90
2022-09-12T12:37:51.983Z,3.70
2022-09-12T12:42:57.752Z,1.30
2022-09-12T12:48:04.063Z,3.60
2022-09-12T12:53:23.204Z,6.50
2022-09-12T12:58:36.296Z,8.60
2022-09-12T13:03:40.742Z,8.00
2022-09-12T13:08:46.310Z,3.80
2022-09-12T13:13:53.091Z,2.70
2022-09-12T13:18:54.816Z,1.90
2022-09-12T13:24:02.608Z,4.60
2022-09-12T13:29:09.186Z,2.50
2022-09-12T13:34:11.697Z,4.50
2022-09-12T13:39:21.223Z,1.70
2022-09-12T13:44:24.126Z,4.90
2022-09-12T13:49:33.212Z,3.00
2022-09-12T13:54:37.939Z,3.40
2022-09-12T13:59:40.154Z,3.30
2022-09-12T14:05:00.526Z,6.80
2022-09-12T14:10:02.094Z,5.40
2022-09-12T14:15:03.855Z,3.30
2022-09-12T14:20:07.179Z,2.60
2022-09-12T14:25:15.231Z,3.20
2022-09-12T14:30:21.672Z,2.30
2022-09-12T14:35:24.088Z,2.00
2022-09-12T14:40:26.766Z,3.30
2022-09-12T14:45:30.128Z,1.60
2022-09-12T14:50:35.319Z,2.30
2022-09-12T14:55:43.126Z,2.30
2022-09-12T15:00:54.905Z,3.20
2022-09-12T15:05:56.675Z,2.00
2022-09-12T15:10:58.662Z,3.30
2022-09-12T15:16:00.528Z,2.20
2022-09-12T15:21:03.841Z,1.60
2022-09-12T15:26:05.597Z,2.20
2022-09-12T15:31:10.787Z,4.40
2022-09-12T15:36:16.283Z,1.90
2022-09-12T15:41:19.571Z,2.60
2022-09-12T15:46:21.517Z,6.20
2022-09-12T15:51:23.064Z,3.40
2022-09-12T15:56:24.632Z,2.20
2022-09-12T16:01:26.386Z,3.50
2022-09-12T16:06:33.589Z,4.60
2022-09-12T16:11:38.150Z,4.80
2022-09-12T16:16:39.703Z,3.10
2022-09-12T16:21:41.226Z,1.90
2022-09-12T16:26:43.056Z,3.50
2022-09-12T16:31:44.910Z,2.70
2022-09-12T16:36:47.108Z,5.80
2022-09-12T16:41:48.764Z,3.60
2022-09-12T16:46:51.138Z,11.20
2022-09-12T16:51:52.661Z,6.90
2022-09-12T16:56:54.255Z,67.50
2022-09-12T17:01:55.921Z,20.00
2022-09-12T17:06:59.422Z,5.10
2022-09-12T17:12:00.986Z,5.10
2022-09-12T17:17:02.460Z,6.70
2022-09-12T17:22:03.961Z,5.80
2022-09-12T17:27:05.936Z,5.40
2022-09-12T17:32:07.632Z,13.10
2022-09-12T17:37:09.677Z,10.30
2022-09-12T17:42:11.329Z,15.90
2022-09-12T17:47:12.912Z,17.50
2022-09-12T17:52:14.685Z,25.00
2022-09-12T17:57:16.546Z,36.40
2022-09-12T18:02:18.552Z,60.60
2022-09-12T18:07:20.458Z,69.00
2022-09-12T18:12:22.191Z,70.10
2022-09-12T18:17:23.859Z,72.00
2022-09-12T18:22:25.552Z,52.60
2022-09-12T18:27:27.122Z,48.40
2022-09-12T18:32:28.702Z,44.70
2022-09-12T18:37:30.492Z,44.90
2022-09-12T18:42:32.734Z,37.00
2022-09-12T18:47:34.636Z,34.60
2022-09-12T18:52:36.340Z,47.80
2022-09-12T18:57:38.197Z,29.30
2022-09-12T19:02:39.784Z,23.90
2022-09-12T19:07:41.432Z,25.00
2022-09-12T19:12:43.353Z,32.00
2022-09-12T19:17:45.036Z,29.20
2022-09-12T19:22:46.584Z,30.60
2022-09-12T19:27:48.225Z,33.00
2022-09-12T19:32:50.227Z,32.40
2022-09-12T19:37:51.878Z,22.40
2022-09-12T19:42:53.550Z,24.80
2022-09-12T19:47:55.189Z,24.70
2022-09-12T19:52:57.585Z,20.70
2022-09-12T19:57:59.074Z,25.20
2022-09-12T20:03:00.742Z,79.70
2022-09-12T20:08:03.139Z,22.30
2022-09-12T20:13:05.417Z,15.40
2022-09-12T20:18:06.965Z,17.20
2022-09-12T20:23:08.540Z,15.60
2022-09-12T20:28:10.057Z,18.50
2022-09-12T20:33:11.600Z,11.20
2022-09-12T20:38:13.249Z,16.20
2022-09-12T20:43:14.906Z,13.40
2022-09-12T20:48:16.406Z,13.30
2022-09-12T20:53:17.960Z,15.90
2022-09-12T20:58:20.154Z,24.20
2022-09-12T21:03:21.872Z,25.40
2022-09-12T21:08:23.467Z,30.90
2022-09-12T21:13:25.189Z,40.50
2022-09-12T21:18:26.771Z,38.10
2022-09-12T21:23:28.588Z,42.90
2022-09-12T21:28:30.170Z,54.50
2022-09-12T21:33:31.860Z,48.20
2022-09-12T21:38:33.924Z,65.70
2022-09-12T21:43:35.600Z,78.80
2022-09-12T21:48:37.473Z,54.70
2022-09-12T21:53:39.054Z,59.20
2022-09-12T21:58:40.655Z,49.00
2022-09-12T22:03:43.191Z,42.70
2022-09-12T22:08:44.719Z,38.20
2022-09-12T22:13:46.364Z,36.30
2022-09-12T22:18:48.063Z,47.70
2022-09-12T22:24:08.344Z,36.80
2022-09-12T22:29:10.379Z,37.80
2022-09-12T22:34:11.867Z,33.20
2022-09-12T22:39:13.479Z,36.80
2022-09-12T22:44:16.492Z,38.90
2022-09-12T22:49:18.039Z,32.50
2022-09-12T22:54:19.624Z,38.80
2022-09-12T22:59:21.183Z,46.60
2022-09-12T23:04:22.768Z,43.00
2022-09-12T23:09:24.408Z,44.40
2022-09-12T23:14:25.955Z,46.40
2022-09-12T23:19:27.476Z,55.00
2022-09-12T23:24:28.980Z,54.90
2022-09-12T23:29:35.319Z,58.40
2022-09-12T23:34:36.919Z,58.40
2022-09-12T23:39:38.456Z,50.50
2022-09-12T23:44:40.344Z,27.50
2022-09-12T23:49:41.861Z,22.20
2022-09-12T23:54:43.397Z,28.60
2022-09-12T23:59:44.975Z,30.70
